sensor_id;sensor_type;location;lat;lon;timestamp;pressure;altitude;pressure_sealevel;temperature;humidity
22580;BME280;11456;47.030;15.396;2023-07-09T00:00:45;97974.88;;;21.52;91.76
22580;BME280;11456;47.030;15.396;2023-07-09T00:03:13;97977.03;;;21.50;92.40
22580;BME280;11456;47.030;15.396;2023-07-09T00:05:40;97979.56;;;21.32;94.18
22580;BME280;11456;47.030;15.396;2023-07-09T00:08:10;97978.69;;;21.38;93.61
22580;BME280;11456;47.030;15.396;2023-07-09T00:10:43;97975.16;;;21.31;94.03
22580;BME280;11456;47.030;15.396;2023-07-09T00:13:09;97967.34;;;21.28;94.03
22580;BME280;11456;47.030;15.396;2023-07-09T00:15:36;97969.88;;;21.36;94.23
22580;BME280;11456;47.030;15.396;2023-07-09T00:18:02;97967.13;;;21.36;93.62
22580;BME280;11456;47.030;15.396;2023-07-09T00:20:29;97963.34;;;20.98;96.94
22580;BME280;11456;47.030;15.396;2023-07-09T00:22:55;97954.91;;;21.06;96.91
22580;BME280;11456;47.030;15.396;2023-07-09T00:25:23;97962.69;;;21.35;94.84
22580;BME280;11456;47.030;15.396;2023-07-09T00:27:50;97965.25;;;21.37;94.22
22580;BME280;11456;47.030;15.396;2023-07-09T00:30:18;97963.94;;;21.39;94.09
22580;BME280;11456;47.030;15.396;2023-07-09T00:32:45;97965.44;;;21.35;93.87
22580;BME280;11456;47.030;15.396;2023-07-09T00:35:12;97970.28;;;21.33;94.04
22580;BME280;11456;47.030;15.396;2023-07-09T00:37:45;97962.91;;;21.14;96.22
22580;BME280;11456;47.030;15.396;2023-07-09T00:40:16;97957.88;;;21.24;94.36
22580;BME280;11456;47.030;15.396;2023-07-09T00:42:45;97964.63;;;21.22;94.42
22580;BME280;11456;47.030;15.396;2023-07-09T00:45:30;97970.28;;;21.40;93.12
22580;BME280;11456;47.030;15.396;2023-07-09T00:48:00;97968.19;;;21.29;93.37
22580;BME280;11456;47.030;15.396;2023-07-09T00:50:41;97974.06;;;21.32;93.04
22580;BME280;11456;47.030;15.396;2023-07-09T00:55:38;97979.53;;;21.12;94.67
22580;BME280;11456;47.030;15.396;2023-07-09T00:58:09;97980.81;;;20.97;96.43
22580;BME280;11456;47.030;15.396;2023-07-09T01:00:44;97981.47;;;20.99;97.21
22580;BME280;11456;47.030;15.396;2023-07-09T01:03:57;97978.28;;;20.89;97.80
22580;BME280;11456;47.030;15.396;2023-07-09T01:06:06;97981.88;;;21.09;96.61
22580;BME280;11456;47.030;15.396;2023-07-09T01:08:33;97979.31;;;20.94;96.93
22580;BME280;11456;47.030;15.396;2023-07-09T01:11:01;97979.13;;;20.96;96.67
22580;BME280;11456;47.030;15.396;2023-07-09T01:13:27;97984.59;;;20.96;96.99
22580;BME280;11456;47.030;15.396;2023-07-09T01:15:55;97985.03;;;20.93;97.00
22580;BME280;11456;47.030;15.396;2023-07-09T01:18:22;97986.25;;;20.70;98.66
22580;BME280;11456;47.030;15.396;2023-07-09T01:20:51;97985.81;;;20.47;100.00
22580;BME280;11456;47.030;15.396;2023-07-09T01:23:19;97988.72;;;20.39;100.00
22580;BME280;11456;47.030;15.396;2023-07-09T01:25:50;97989.81;;;20.51;99.79
22580;BME280;11456;47.030;15.396;2023-07-09T01:28:19;97992.97;;;20.48;100.00
22580;BME280;11456;47.030;15.396;2023-07-09T01:30:46;97992.16;;;20.67;99.35
22580;BME280;11456;47.030;15.396;2023-07-09T01:33:15;97997.38;;;20.49;99.87
22580;BME280;11456;47.030;15.396;2023-07-09T01:35:42;97996.75;;;20.47;100.00
22580;BME280;11456;47.030;15.396;2023-07-09T01:38:09;97989.78;;;20.38;99.62
22580;BME280;11456;47.030;15.396;2023-07-09T01:40:36;97995.38;;;20.23;100.00
22580;BME280;11456;47.030;15.396;2023-07-09T01:43:05;97996.59;;;20.08;100.00
22580;BME280;11456;47.030;15.396;2023-07-09T01:45:35;97985.22;;;20.11;100.00
22580;BME280;11456;47.030;15.396;2023-07-09T01:48:02;97984.19;;;20.12;100.00
22580;BME280;11456;47.030;15.396;2023-07-09T01:50:29;97995.31;;;20.10;100.00
22580;BME280;11456;47.030;15.396;2023-07-09T01:52:56;97997.81;;;20.05;100.00
22580;BME280;11456;47.030;15.396;2023-07-09T01:55:22;97996.63;;;20.21;100.00
22580;BME280;11456;47.030;15.396;2023-07-09T01:57:49;98000.41;;;20.20;99.46
22580;BME280;11456;47.030;15.396;2023-07-09T02:00:18;98004.97;;;20.06;100.00
22580;BME280;11456;47.030;15.396;2023-07-09T02:02:46;97992.81;;;20.09;100.00
22580;BME280;11456;47.030;15.396;2023-07-09T02:05:16;97998.59;;;19.92;100.00
22580;BME280;11456;47.030;15.396;2023-07-09T02:07:44;98002.38;;;19.91;100.00
22580;BME280;11456;47.030;15.396;2023-07-09T02:10:10;98001.22;;;20.07;100.00
22580;BME280;11456;47.030;15.396;2023-07-09T02:12:37;98006.28;;;20.17;99.11
22580;BME280;11456;47.030;15.396;2023-07-09T02:15:04;98008.63;;;20.20;97.82
22580;BME280;11456;47.030;15.396;2023-07-09T02:17:31;98012.13;;;20.00;100.00
22580;BME280;11456;47.030;15.396;2023-07-09T02:19:57;98010.84;;;19.96;100.00
22580;BME280;11456;47.030;15.396;2023-07-09T02:22:24;98009.97;;;19.89;100.00
22580;BME280;11456;47.030;15.396;2023-07-09T02:24:51;98011.59;;;19.77;100.00
22580;BME280;11456;47.030;15.396;2023-07-09T02:27:19;98017.09;;;19.84;100.00
22580;BME280;11456;47.030;15.396;2023-07-09T02:29:46;98020.41;;;19.79;100.00
22580;BME280;11456;47.030;15.396;2023-07-09T02:32:15;98024.44;;;19.83;100.00
22580;BME280;11456;47.030;15.396;2023-07-09T02:34:45;98020.25;;;19.87;100.00
22580;BME280;11456;47.030;15.396;2023-07-09T02:37:16;98015.34;;;19.76;100.00
22580;BME280;11456;47.030;15.396;2023-07-09T02:39:43;98012.13;;;19.66;100.00
22580;BME280;11456;47.030;15.396;2023-07-09T02:42:11;98021.88;;;19.75;100.00
22580;BME280;11456;47.030;15.396;2023-07-09T02:44:38;98024.59;;;19.75;100.00
22580;BME280;11456;47.030;15.396;2023-07-09T02:47:05;98013.50;;;19.83;100.00
22580;BME280;11456;47.030;15.396;2023-07-09T02:49:32;98021.28;;;19.86;100.00
22580;BME280;11456;47.030;15.396;2023-07-09T02:51:58;98021.41;;;19.65;100.00
22580;BME280;11456;47.030;15.396;2023-07-09T02:54:25;98020.81;;;19.76;100.00
22580;BME280;11456;47.030;15.396;2023-07-09T02:56:52;98019.97;;;19.76;100.00
22580;BME280;11456;47.030;15.396;2023-07-09T02:59:18;98015.75;;;19.73;100.00
22580;BME280;11456;47.030;15.396;2023-07-09T03:01:45;98027.47;;;19.67;100.00
22580;BME280;11456;47.030;15.396;2023-07-09T03:04:11;98021.22;;;19.73;100.00
22580;BME280;11456;47.030;15.396;2023-07-09T03:06:38;98021.13;;;19.60;100.00
22580;BME280;11456;47.030;15.396;2023-07-09T03:09:06;98021.63;;;19.70;100.00
22580;BME280;11456;47.030;15.396;2023-07-09T03:11:33;98016.97;;;19.64;100.00
22580;BME280;11456;47.030;15.396;2023-07-09T03:14:00;98021.66;;;19.77;100.00
22580;BME280;11456;47.030;15.396;2023-07-09T03:16:28;98022.59;;;19.56;100.00
22580;BME280;11456;47.030;15.396;2023-07-09T03:18:55;98028.38;;;19.74;99.94
22580;BME280;11456;47.030;15.396;2023-07-09T03:21:22;98019.94;;;19.69;99.75
22580;BME280;11456;47.030;15.396;2023-07-09T03:23:50;98027.09;;;19.70;100.00
22580;BME280;11456;47.030;15.396;2023-07-09T03:26:17;98033.84;;;19.74;100.00
22580;BME280;11456;47.030;15.396;2023-07-09T03:28:43;98033.38;;;19.64;100.00
22580;BME280;11456;47.030;15.396;2023-07-09T03:31:10;98032.31;;;19.65;100.00
22580;BME280;11456;47.030;15.396;2023-07-09T03:33:37;98033.75;;;19.61;100.00
22580;BME280;11456;47.030;15.396;2023-07-09T03:36:04;98037.00;;;19.71;100.00
22580;BME280;11456;47.030;15.396;2023-07-09T03:38:31;98032.94;;;19.67;100.00
22580;BME280;11456;47.030;15.396;2023-07-09T03:40:58;98042.03;;;19.74;100.00
22580;BME280;11456;47.030;15.396;2023-07-09T03:43:25;98037.59;;;19.73;100.00
22580;BME280;11456;47.030;15.396;2023-07-09T03:45:51;98040.09;;;19.68;100.00
22580;BME280;11456;47.030;15.396;2023-07-09T03:48:18;98036.00;;;19.51;100.00
22580;BME280;11456;47.030;15.396;2023-07-09T03:50:46;98031.50;;;19.43;100.00
22580;BME280;11456;47.030;15.396;2023-07-09T03:53:13;98035.28;;;19.70;100.00
22580;BME280;11456;47.030;15.396;2023-07-09T03:55:40;98034.69;;;19.75;100.00
22580;BME280;11456;47.030;15.396;2023-07-09T03:58:07;98047.81;;;19.92;100.00
22580;BME280;11456;47.030;15.396;2023-07-09T04:00:34;98040.50;;;19.99;100.00
22580;BME280;11456;47.030;15.396;2023-07-09T04:03:01;98048.00;;;19.84;100.00
22580;BME280;11456;47.030;15.396;2023-07-09T04:05:27;98055.84;;;20.00;100.00
22580;BME280;11456;47.030;15.396;2023-07-09T04:07:54;98047.22;;;20.38;99.82
22580;BME280;11456;47.030;15.396;2023-07-09T04:10:21;98052.75;;;20.51;97.53
22580;BME280;11456;47.030;15.396;2023-07-09T04:12:47;98051.06;;;20.57;98.66
22580;BME280;11456;47.030;15.396;2023-07-09T04:15:14;98043.06;;;20.62;98.25
22580;BME280;11456;47.030;15.396;2023-07-09T04:17:41;98039.22;;;20.43;97.46
22580;BME280;11456;47.030;15.396;2023-07-09T04:20:08;98048.75;;;20.47;97.83
22580;BME280;11456;47.030;15.396;2023-07-09T04:22:37;98035.69;;;20.56;97.44
22580;BME280;11456;47.030;15.396;2023-07-09T04:25:05;98042.22;;;20.61;98.22
22580;BME280;11456;47.030;15.396;2023-07-09T04:27:32;98046.47;;;20.70;98.61
22580;BME280;11456;47.030;15.396;2023-07-09T04:30:00;98049.88;;;20.72;99.37
22580;BME280;11456;47.030;15.396;2023-07-09T04:32:26;98054.06;;;20.81;98.06
22580;BME280;11456;47.030;15.396;2023-07-09T04:34:53;98044.84;;;20.96;97.29
22580;BME280;11456;47.030;15.396;2023-07-09T04:37:20;98046.97;;;21.13;96.49
22580;BME280;11456;47.030;15.396;2023-07-09T04:39:46;98046.94;;;21.07;97.01
22580;BME280;11456;47.030;15.396;2023-07-09T04:42:14;98056.50;;;21.24;96.15
22580;BME280;11456;47.030;15.396;2023-07-09T04:44:41;98058.78;;;21.60;93.48
22580;BME280;11456;47.030;15.396;2023-07-09T04:47:08;98056.69;;;21.55;92.89
22580;BME280;11456;47.030;15.396;2023-07-09T04:49:35;98063.44;;;21.46;93.61
22580;BME280;11456;47.030;15.396;2023-07-09T04:52:01;98057.56;;;21.49;94.25
22580;BME280;11456;47.030;15.396;2023-07-09T04:54:28;98057.09;;;21.19;94.24
22580;BME280;11456;47.030;15.396;2023-07-09T04:56:54;98055.66;;;21.17;94.54
22580;BME280;11456;47.030;15.396;2023-07-09T04:59:22;98063.03;;;21.43;93.61
22580;BME280;11456;47.030;15.396;2023-07-09T05:01:49;98057.97;;;21.33;92.74
22580;BME280;11456;47.030;15.396;2023-07-09T05:04:15;98063.44;;;21.33;93.11
22580;BME280;11456;47.030;15.396;2023-07-09T05:06:44;98073.16;;;21.29;94.09
22580;BME280;11456;47.030;15.396;2023-07-09T05:09:11;98064.28;;;21.27;94.80
22580;BME280;11456;47.030;15.396;2023-07-09T05:11:37;98064.66;;;21.11;96.71
22580;BME280;11456;47.030;15.396;2023-07-09T05:14:04;98059.44;;;21.42;96.19
22580;BME280;11456;47.030;15.396;2023-07-09T05:16:30;98063.00;;;21.69;94.94
22580;BME280;11456;47.030;15.396;2023-07-09T05:18:57;98055.84;;;21.75;93.86
22580;BME280;11456;47.030;15.396;2023-07-09T05:21:24;98055.41;;;21.65;94.66
22580;BME280;11456;47.030;15.396;2023-07-09T05:23:50;98059.59;;;22.00;92.90
22580;BME280;11456;47.030;15.396;2023-07-09T05:26:17;98063.56;;;22.17;90.74
22580;BME280;11456;47.030;15.396;2023-07-09T05:28:43;98063.16;;;22.65;90.23
22580;BME280;11456;47.030;15.396;2023-07-09T05:31:10;98062.13;;;23.04;87.25
22580;BME280;11456;47.030;15.396;2023-07-09T05:33:37;98068.22;;;22.61;88.44
22580;BME280;11456;47.030;15.396;2023-07-09T05:36:03;98059.84;;;22.50;89.12
22580;BME280;11456;47.030;15.396;2023-07-09T05:38:30;98065.41;;;23.12;85.55
22580;BME280;11456;47.030;15.396;2023-07-09T05:41:01;98064.00;;;23.84;82.35
22580;BME280;11456;47.030;15.396;2023-07-09T05:43:29;98074.16;;;23.84;81.29
22580;BME280;11456;47.030;15.396;2023-07-09T05:45:55;98068.44;;;24.04;79.96
22580;BME280;11456;47.030;15.396;2023-07-09T05:48:22;98065.47;;;23.62;82.07
22580;BME280;11456;47.030;15.396;2023-07-09T05:50:52;98062.81;;;23.98;80.61
22580;BME280;11456;47.030;15.396;2023-07-09T05:53:19;98061.41;;;23.89;81.08
22580;BME280;11456;47.030;15.396;2023-07-09T05:55:45;98060.47;;;24.39;78.36
22580;BME280;11456;47.030;15.396;2023-07-09T05:58:12;98058.81;;;24.67;75.99
22580;BME280;11456;47.030;15.396;2023-07-09T06:00:39;98055.13;;;24.92;76.31
22580;BME280;11456;47.030;15.396;2023-07-09T06:03:06;98061.59;;;24.49;75.55
22580;BME280;11456;47.030;15.396;2023-07-09T06:05:34;98060.50;;;24.68;75.23
22580;BME280;11456;47.030;15.396;2023-07-09T06:08:00;98056.94;;;24.80;74.72
22580;BME280;11456;47.030;15.396;2023-07-09T06:10:27;98052.38;;;25.33;71.47
22580;BME280;11456;47.030;15.396;2023-07-09T06:12:54;98066.53;;;25.48;72.49
22580;BME280;11456;47.030;15.396;2023-07-09T06:15:20;98051.22;;;25.99;69.24
22580;BME280;11456;47.030;15.396;2023-07-09T06:17:47;98054.84;;;25.23;72.14
22580;BME280;11456;47.030;15.396;2023-07-09T06:20:13;98065.78;;;25.41;71.08
22580;BME280;11456;47.030;15.396;2023-07-09T06:22:40;98055.16;;;25.45;72.62
22580;BME280;11456;47.030;15.396;2023-07-09T06:25:07;98063.00;;;26.29;69.15
22580;BME280;11456;47.030;15.396;2023-07-09T06:27:33;98058.19;;;26.37;68.86
22580;BME280;11456;47.030;15.396;2023-07-09T06:30:00;98067.84;;;26.62;67.16
22580;BME280;11456;47.030;15.396;2023-07-09T06:32:26;98066.78;;;26.52;67.71
22580;BME280;11456;47.030;15.396;2023-07-09T06:34:53;98075.03;;;27.03;64.14
22580;BME280;11456;47.030;15.396;2023-07-09T06:37:19;98075.13;;;27.37;63.04
22580;BME280;11456;47.030;15.396;2023-07-09T06:39:46;98080.66;;;27.37;62.11
22580;BME280;11456;47.030;15.396;2023-07-09T06:42:13;98081.19;;;27.67;61.96
22580;BME280;11456;47.030;15.396;2023-07-09T06:45:08;98087.22;;;27.98;61.04
22580;BME280;11456;47.030;15.396;2023-07-09T06:47:35;98076.66;;;28.28;60.94
22580;BME280;11456;47.030;15.396;2023-07-09T06:50:02;98082.19;;;28.28;57.18
22580;BME280;11456;47.030;15.396;2023-07-09T06:52:28;98091.75;;;28.81;56.16
22580;BME280;11456;47.030;15.396;2023-07-09T06:54:57;98078.44;;;27.67;59.09
22580;BME280;11456;47.030;15.396;2023-07-09T06:57:24;98085.72;;;27.73;58.32
22580;BME280;11456;47.030;15.396;2023-07-09T06:59:50;98081.69;;;28.75;57.62
22580;BME280;11456;47.030;15.396;2023-07-09T07:02:17;98071.81;;;29.59;53.19
22580;BME280;11456;47.030;15.396;2023-07-09T07:04:44;98073.34;;;29.77;51.24
22580;BME280;11456;47.030;15.396;2023-07-09T07:07:10;98071.94;;;29.42;53.44
22580;BME280;11456;47.030;15.396;2023-07-09T07:09:37;98074.69;;;28.12;56.36
22580;BME280;11456;47.030;15.396;2023-07-09T07:12:03;98078.31;;;28.29;56.51
22580;BME280;11456;47.030;15.396;2023-07-09T07:14:30;98080.34;;;28.00;55.63
22580;BME280;11456;47.030;15.396;2023-07-09T07:16:57;98068.28;;;28.23;56.76
22580;BME280;11456;47.030;15.396;2023-07-09T07:19:24;98072.72;;;29.11;53.71
22580;BME280;11456;47.030;15.396;2023-07-09T07:21:50;98072.25;;;28.32;56.58
22580;BME280;11456;47.030;15.396;2023-07-09T07:24:17;98071.25;;;28.05;58.12
22580;BME280;11456;47.030;15.396;2023-07-09T07:26:43;98067.53;;;30.10;52.47
22580;BME280;11456;47.030;15.396;2023-07-09T07:29:10;98072.03;;;29.53;54.26
22580;BME280;11456;47.030;15.396;2023-07-09T07:31:37;98064.22;;;30.13;52.89
22580;BME280;11456;47.030;15.396;2023-07-09T07:34:03;98057.81;;;31.53;49.88
22580;BME280;11456;47.030;15.396;2023-07-09T07:36:30;98066.47;;;32.22;46.74
22580;BME280;11456;47.030;15.396;2023-07-09T07:39:00;98069.81;;;32.04;45.45
22580;BME280;11456;47.030;15.396;2023-07-09T07:41:27;98064.75;;;32.36;43.76
22580;BME280;11456;47.030;15.396;2023-07-09T07:43:53;98065.91;;;32.25;46.50
22580;BME280;11456;47.030;15.396;2023-07-09T07:46:20;98063.56;;;32.73;45.06
22580;BME280;11456;47.030;15.396;2023-07-09T07:48:47;98066.41;;;32.42;47.33
22580;BME280;11456;47.030;15.396;2023-07-09T07:51:13;98064.47;;;33.22;42.09
22580;BME280;11456;47.030;15.396;2023-07-09T07:53:40;98059.81;;;31.67;45.12
22580;BME280;11456;47.030;15.396;2023-07-09T07:56:07;98067.31;;;33.07;42.42
22580;BME280;11456;47.030;15.396;2023-07-09T07:58:33;98063.13;;;33.49;41.45
22580;BME280;11456;47.030;15.396;2023-07-09T08:01:00;98050.78;;;33.60;42.06
22580;BME280;11456;47.030;15.396;2023-07-09T08:03:27;98055.00;;;34.49;40.28
22580;BME280;11456;47.030;15.396;2023-07-09T08:05:54;98054.19;;;32.38;44.04
22580;BME280;11456;47.030;15.396;2023-07-09T08:08:21;98060.88;;;31.51;46.38
22580;BME280;11456;47.030;15.396;2023-07-09T08:10:51;98053.28;;;32.53;45.16
22580;BME280;11456;47.030;15.396;2023-07-09T08:13:18;98057.47;;;32.50;41.39
22580;BME280;11456;47.030;15.396;2023-07-09T08:15:45;98053.41;;;31.92;41.69
22580;BME280;11456;47.030;15.396;2023-07-09T08:18:12;98043.91;;;31.63;44.71
22580;BME280;11456;47.030;15.396;2023-07-09T08:20:42;98048.19;;;33.29;40.42
22580;BME280;11456;47.030;15.396;2023-07-09T08:23:08;98045.59;;;31.64;43.63
22580;BME280;11456;47.030;15.396;2023-07-09T08:25:35;98048.09;;;31.91;41.18
22580;BME280;11456;47.030;15.396;2023-07-09T08:28:01;98043.06;;;32.03;44.81
22580;BME280;11456;47.030;15.396;2023-07-09T08:30:28;98041.38;;;31.26;46.10
22580;BME280;11456;47.030;15.396;2023-07-09T08:32:55;98037.19;;;32.99;41.86
22580;BME280;11456;47.030;15.396;2023-07-09T08:35:22;98039.03;;;32.59;43.11
22580;BME280;11456;47.030;15.396;2023-07-09T08:37:51;98038.75;;;33.25;41.69
22580;BME280;11456;47.030;15.396;2023-07-09T08:40:18;98041.84;;;32.54;43.52
22580;BME280;11456;47.030;15.396;2023-07-09T08:42:45;98043.03;;;32.38;43.42
22580;BME280;11456;47.030;15.396;2023-07-09T08:45:40;98042.25;;;32.17;43.91
22580;BME280;11456;47.030;15.396;2023-07-09T08:48:23;98045.69;;;32.74;44.08
22580;BME280;11456;47.030;15.396;2023-07-09T08:50:54;98040.50;;;32.37;45.81
22580;BME280;11456;47.030;15.396;2023-07-09T08:53:31;98043.63;;;32.15;44.19
22580;BME280;11456;47.030;15.396;2023-07-09T08:55:59;98040.50;;;32.37;45.18
22580;BME280;11456;47.030;15.396;2023-07-09T08:58:28;98044.19;;;32.17;46.31
22580;BME280;11456;47.030;15.396;2023-07-09T09:00:56;98043.69;;;32.84;44.77
22580;BME280;11456;47.030;15.396;2023-07-09T09:03:31;98038.09;;;31.74;46.83
22580;BME280;11456;47.030;15.396;2023-07-09T09:06:02;98043.06;;;32.13;45.33
22580;BME280;11456;47.030;15.396;2023-07-09T09:11:06;98039.72;;;32.06;47.38
22580;BME280;11456;47.030;15.396;2023-07-09T09:13:33;98037.78;;;32.91;44.21
22580;BME280;11456;47.030;15.396;2023-07-09T09:16:03;98035.72;;;32.47;43.94
22580;BME280;11456;47.030;15.396;2023-07-09T09:18:32;98037.16;;;33.04;41.80
22580;BME280;11456;47.030;15.396;2023-07-09T09:21:05;98035.81;;;33.46;39.99
22580;BME280;11456;47.030;15.396;2023-07-09T09:23:43;98036.81;;;33.60;40.08
22580;BME280;11456;47.030;15.396;2023-07-09T09:26:16;98033.25;;;33.54;39.50
22580;BME280;11456;47.030;15.396;2023-07-09T09:28:44;98040.91;;;32.89;43.19
22580;BME280;11456;47.030;15.396;2023-07-09T09:31:10;98041.28;;;32.52;43.04
22580;BME280;11456;47.030;15.396;2023-07-09T09:33:41;98037.78;;;32.91;42.40
22580;BME280;11456;47.030;15.396;2023-07-09T09:36:21;98036.22;;;32.59;41.14
22580;BME280;11456;47.030;15.396;2023-07-09T09:38:49;98032.84;;;33.71;38.68
22580;BME280;11456;47.030;15.396;2023-07-09T09:41:21;98032.41;;;33.54;38.01
22580;BME280;11456;47.030;15.396;2023-07-09T09:43:48;98040.38;;;32.82;38.56
22580;BME280;11456;47.030;15.396;2023-07-09T09:46:18;98041.84;;;33.19;40.19
22580;BME280;11456;47.030;15.396;2023-07-09T09:48:46;98025.41;;;33.90;39.42
22580;BME280;11456;47.030;15.396;2023-07-09T09:51:13;98030.03;;;32.78;41.83
22580;BME280;11456;47.030;15.396;2023-07-09T09:53:40;98032.72;;;32.98;40.49
22580;BME280;11456;47.030;15.396;2023-07-09T09:56:11;98021.38;;;33.33;40.52
22580;BME280;11456;47.030;15.396;2023-07-09T09:58:40;98023.25;;;33.82;37.98
22580;BME280;11456;47.030;15.396;2023-07-09T10:01:17;98023.88;;;34.03;35.33
22580;BME280;11456;47.030;15.396;2023-07-09T10:03:46;98026.66;;;34.32;36.80
22580;BME280;11456;47.030;15.396;2023-07-09T10:06:16;98024.53;;;34.47;37.18
22580;BME280;11456;47.030;15.396;2023-07-09T10:11:18;98027.94;;;34.15;35.74
22580;BME280;11456;47.030;15.396;2023-07-09T10:13:45;98034.59;;;34.25;34.15
22580;BME280;11456;47.030;15.396;2023-07-09T10:16:19;98026.44;;;34.52;33.28
22580;BME280;11456;47.030;15.396;2023-07-09T10:21:40;98028.19;;;34.90;31.82
22580;BME280;11456;47.030;15.396;2023-07-09T10:26:46;98035.38;;;33.28;33.77
22580;BME280;11456;47.030;15.396;2023-07-09T10:29:33;98032.84;;;33.71;34.52
22580;BME280;11456;47.030;15.396;2023-07-09T10:34:34;98022.31;;;33.58;32.55
22580;BME280;11456;47.030;15.396;2023-07-09T10:39:41;98021.19;;;34.45;33.26
22580;BME280;11456;47.030;15.396;2023-07-09T10:42:17;98022.28;;;35.72;30.54
22580;BME280;11456;47.030;15.396;2023-07-09T10:44:45;98025.63;;;36.20;28.84
22580;BME280;11456;47.030;15.396;2023-07-09T10:47:34;98022.44;;;36.40;27.81
22580;BME280;11456;47.030;15.396;2023-07-09T10:50:02;98017.06;;;35.79;27.52
22580;BME280;11456;47.030;15.396;2023-07-09T10:52:30;98016.63;;;36.04;28.71
22580;BME280;11456;47.030;15.396;2023-07-09T10:57:31;98023.56;;;36.39;28.17
22580;BME280;11456;47.030;15.396;2023-07-09T11:00:02;98029.00;;;35.71;28.53
22580;BME280;11456;47.030;15.396;2023-07-09T11:02:32;98014.75;;;36.60;29.55
22580;BME280;11456;47.030;15.396;2023-07-09T11:05:00;98016.91;;;35.38;32.39
22580;BME280;11456;47.030;15.396;2023-07-09T11:07:29;98027.66;;;35.31;30.65
22580;BME280;11456;47.030;15.396;2023-07-09T11:09:58;98016.81;;;35.06;31.23
22580;BME280;11456;47.030;15.396;2023-07-09T11:12:39;98016.16;;;34.18;32.74
22580;BME280;11456;47.030;15.396;2023-07-09T11:15:17;98015.97;;;35.61;31.20
22580;BME280;11456;47.030;15.396;2023-07-09T11:17:45;98009.84;;;35.41;31.19
22580;BME280;11456;47.030;15.396;2023-07-09T11:20:18;98012.34;;;35.05;31.31
22580;BME280;11456;47.030;15.396;2023-07-09T11:22:51;98017.75;;;36.22;30.41
22580;BME280;11456;47.030;15.396;2023-07-09T11:25:27;98022.09;;;36.55;29.52
22580;BME280;11456;47.030;15.396;2023-07-09T11:28:00;98015.59;;;34.69;30.41
22580;BME280;11456;47.030;15.396;2023-07-09T11:30:28;98020.78;;;34.33;30.39
22580;BME280;11456;47.030;15.396;2023-07-09T11:32:59;98015.59;;;34.69;30.36
22580;BME280;11456;47.030;15.396;2023-07-09T11:35:48;98014.09;;;35.19;30.42
22580;BME280;11456;47.030;15.396;2023-07-09T11:38:19;98018.16;;;35.08;30.22
22580;BME280;11456;47.030;15.396;2023-07-09T11:40:49;98012.50;;;34.94;30.19
22580;BME280;11456;47.030;15.396;2023-07-09T11:43:26;98013.91;;;34.73;31.13
22580;BME280;11456;47.030;15.396;2023-07-09T11:45:53;98015.03;;;34.25;32.04
22580;BME280;11456;47.030;15.396;2023-07-09T11:48:23;98006.38;;;34.45;31.42
22580;BME280;11456;47.030;15.396;2023-07-09T11:50:51;98006.75;;;34.09;31.39
22580;BME280;11456;47.030;15.396;2023-07-09T11:55:46;98011.47;;;34.43;31.36
22580;BME280;11456;47.030;15.396;2023-07-09T11:58:14;98009.38;;;34.30;31.58
22580;BME280;11456;47.030;15.396;2023-07-09T12:00:42;98008.09;;;33.15;32.84
22580;BME280;11456;47.030;15.396;2023-07-09T12:03:20;98011.63;;;33.65;32.55
22580;BME280;11456;47.030;15.396;2023-07-09T12:05:54;98005.22;;;34.93;32.68
22580;BME280;11456;47.030;15.396;2023-07-09T12:08:23;98013.47;;;33.01;35.54
22580;BME280;11456;47.030;15.396;2023-07-09T12:10:51;98000.38;;;32.28;35.48
22580;BME280;11456;47.030;15.396;2023-07-09T12:13:19;98011.59;;;32.87;34.65
22580;BME280;11456;47.030;15.396;2023-07-09T12:15:45;98008.44;;;33.42;32.62
22580;BME280;11456;47.030;15.396;2023-07-09T12:18:13;98007.16;;;34.27;32.09
22580;BME280;11456;47.030;15.396;2023-07-09T12:20:40;98006.22;;;33.45;32.84
22580;BME280;11456;47.030;15.396;2023-07-09T12:23:25;98002.81;;;33.09;33.27
22580;BME280;11456;47.030;15.396;2023-07-09T12:25:53;98007.44;;;33.33;34.14
22580;BME280;11456;47.030;15.396;2023-07-09T12:28:20;97988.06;;;33.03;34.86
22580;BME280;11456;47.030;15.396;2023-07-09T12:30:48;97991.50;;;32.90;34.01
22580;BME280;11456;47.030;15.396;2023-07-09T12:33:16;97981.53;;;33.57;33.67
22580;BME280;11456;47.030;15.396;2023-07-09T12:35:43;97990.19;;;33.16;33.81
22580;BME280;11456;47.030;15.396;2023-07-09T12:38:16;97988.94;;;34.05;31.98
22580;BME280;11456;47.030;15.396;2023-07-09T12:40:44;97988.53;;;33.20;32.83
22580;BME280;11456;47.030;15.396;2023-07-09T12:43:10;98000.47;;;33.31;33.27
22580;BME280;11456;47.030;15.396;2023-07-09T12:45:37;97991.94;;;33.80;32.37
22580;BME280;11456;47.030;15.396;2023-07-09T12:48:04;97986.75;;;34.92;33.37
22580;BME280;11456;47.030;15.396;2023-07-09T12:50:32;97977.63;;;35.24;31.19
22580;BME280;11456;47.030;15.396;2023-07-09T12:53:01;97992.66;;;36.12;31.89
22580;BME280;11456;47.030;15.396;2023-07-09T12:55:28;97988.34;;;36.20;30.33
22580;BME280;11456;47.030;15.396;2023-07-09T12:57:58;97983.78;;;34.41;31.32
22580;BME280;11456;47.030;15.396;2023-07-09T13:00:26;97984.03;;;34.87;31.39
22580;BME280;11456;47.030;15.396;2023-07-09T13:02:55;97982.22;;;35.53;30.57
22580;BME280;11456;47.030;15.396;2023-07-09T13:05:24;97978.00;;;34.56;33.30
22580;BME280;11456;47.030;15.396;2023-07-09T13:07:57;97979.19;;;34.93;30.25
22580;BME280;11456;47.030;15.396;2023-07-09T13:10:25;97979.81;;;35.78;29.87
22580;BME280;11456;47.030;15.396;2023-07-09T13:13:00;97976.94;;;35.14;30.65
22580;BME280;11456;47.030;15.396;2023-07-09T13:15:31;97978.06;;;35.50;30.72
22580;BME280;11456;47.030;15.396;2023-07-09T13:17:59;97978.81;;;35.37;30.27